Time,TemperatureF,DewpointF,PressureIn,WindDirection,WindDirectionDegrees,WindSpeedMPH,WindSpeedGustMPH,Humidity,HourlyPrecipIn,Conditions,Clouds,dailyrainin,SolarRadiationWatts/m^2,SoftwareType,DateUTC
2013-08-02 00:22:00,55.0,51.0,-100.00,South,181,6.0,9.0,85,0.00,,,0.00,0.000000,,2013-08-02 08:22:00,
2013-08-02 00:33:00,55.0,51.0,-100.00,South,181,6.0,9.0,85,0.00,,,0.00,0.000000,,2013-08-02 08:33:00,
2013-08-02 00:43:00,55.0,51.0,-100.00,South,181,6.0,9.0,85,0.00,,,0.00,0.000000,,2013-08-02 08:43:00,
2013-08-02 00:53:00,55.0,51.0,-100.00,South,181,6.0,9.0,85,0.00,,,0.00,0.000000,,2013-08-02 08:53:00,
2013-08-02 01:22:00,53.0,50.0,-100.00,South,189,4.0,6.0,89,0.00,,,-99.99,0.000000,,2013-08-02 09:22:00,
2013-08-02 01:33:00,53.0,50.0,-100.00,South,189,4.0,6.0,89,0.00,,,-99.99,0.000000,,2013-08-02 09:33:00,
2013-08-02 01:43:00,53.0,50.0,-100.00,South,189,4.0,6.0,89,0.00,,,-99.99,0.000000,,2013-08-02 09:43:00,
2013-08-02 01:52:00,53.0,50.0,-100.00,South,189,4.0,6.0,89,0.00,,,-99.99,0.000000,,2013-08-02 09:52:00,
2013-08-02 02:23:00,54.0,51.0,-100.00,South,189,5.0,7.0,90,0.00,,,0.00,0.000000,,2013-08-02 10:23:00,
2013-08-02 02:33:00,54.0,51.0,-100.00,South,189,5.0,7.0,90,0.00,,,0.00,0.000000,,2013-08-02 10:33:00,
2013-08-02 02:43:00,54.0,51.0,-100.00,South,189,5.0,7.0,90,0.00,,,0.00,0.000000,,2013-08-02 10:43:00,
2013-08-02 02:52:00,54.0,51.0,-100.00,South,189,5.0,7.0,90,0.00,,,0.00,0.000000,,2013-08-02 10:52:00,
2013-08-02 03:22:00,51.0,48.0,-100.00,SSW,193,3.0,8.0,90,0.00,,,0.00,0.000000,,2013-08-02 11:22:00,
2013-08-02 03:32:00,51.0,48.0,-100.00,SSW,193,3.0,8.0,90,0.00,,,0.00,0.000000,,2013-08-02 11:32:00,
2013-08-02 03:42:00,51.0,48.0,-100.00,SSW,193,3.0,8.0,90,0.00,,,0.00,0.000000,,2013-08-02 11:42:00,
2013-08-02 03:52:00,51.0,48.0,-100.00,SSW,193,3.0,8.0,90,0.00,,,0.00,0.000000,,2013-08-02 11:52:00,
2013-08-02 04:22:00,48.0,47.0,-100.00,SSW,208,2.0,6.0,96,0.00,,,0.00,0.000000,,2013-08-02 12:22:00,
2013-08-02 04:32:00,48.0,47.0,-100.00,SSW,208,2.0,6.0,96,0.00,,,0.00,0.000000,,2013-08-02 12:32:00,
2013-08-02 04:42:00,48.0,47.0,-100.00,SSW,208,2.0,6.0,96,0.00,,,0.00,0.000000,,2013-08-02 12:42:00,
2013-08-02 04:52:00,48.0,47.0,-100.00,SSW,208,2.0,6.0,96,0.00,,,0.00,0.000000,,2013-08-02 12:52:00,
2013-08-02 06:22:00,49.0,48.0,-100.00,SSE,167,0.0,4.0,98,0.00,,,0.00,65.000000,,2013-08-02 14:22:00,
2013-08-02 06:32:00,49.0,48.0,-100.00,SSE,167,0.0,4.0,98,0.00,,,0.00,65.000000,,2013-08-02 14:32:00,
2013-08-02 06:43:00,49.0,48.0,-100.00,SSE,167,0.0,4.0,98,0.00,,,0.00,65.000000,,2013-08-02 14:43:00,
2013-08-02 06:52:00,49.0,48.0,-100.00,SSE,167,0.0,4.0,98,0.00,,,0.00,65.000000,,2013-08-02 14:52:00,
2013-08-02 07:22:00,58.0,54.0,-100.00,SSE,154,0.0,6.0,86,0.00,,,-99.99,237.000000,,2013-08-02 15:22:00,
2013-08-02 07:32:00,58.0,54.0,-100.00,SSE,154,0.0,6.0,86,0.00,,,-99.99,237.000000,,2013-08-02 15:32:00,
2013-08-02 07:43:00,58.0,54.0,-100.00,SSE,154,0.0,6.0,86,0.00,,,-99.99,237.000000,,2013-08-02 15:43:00,
2013-08-02 07:52:00,58.0,54.0,-100.00,SSE,154,0.0,6.0,86,0.00,,,-99.99,237.000000,,2013-08-02 15:52:00,
2013-08-02 08:32:00,61.0,53.0,-100.00,South,179,3.0,4.0,76,0.00,,,-99.99,422.000000,,2013-08-02 16:32:00,
2013-08-02 08:43:00,61.0,53.0,-100.00,South,179,3.0,4.0,76,0.00,,,-99.99,422.000000,,2013-08-02 16:43:00,
2013-08-02 08:52:00,61.0,53.0,-100.00,South,179,3.0,4.0,76,0.00,,,-99.99,422.000000,,2013-08-02 16:52:00,
2013-08-02 15:32:00,72.0,52.0,-100.00,North,10,7.0,10.0,50,-99.99,,,0.00,407.000000,,2013-08-02 23:32:00,
2013-08-02 15:43:00,72.0,52.0,-100.00,North,10,7.0,10.0,50,-99.99,,,0.00,407.000000,,2013-08-02 23:43:00,
2013-08-02 15:53:00,72.0,52.0,-100.00,North,10,7.0,10.0,50,-99.99,,,0.00,407.000000,,2013-08-02 23:53:00,
2013-08-02 16:32:00,75.0,56.0,-100.00,North,3,8.0,11.0,51,-99.99,,,0.00,638.000000,,2013-08-03 00:32:00,
2013-08-02 16:43:00,75.0,56.0,-100.00,North,3,8.0,11.0,51,-99.99,,,0.00,638.000000,,2013-08-03 00:43:00,
2013-08-02 16:52:00,75.0,56.0,-100.00,North,3,8.0,11.0,51,-99.99,,,0.00,638.000000,,2013-08-03 00:52:00,
2013-08-02 20:43:00,67.0,53.0,-100.00,South,175,6.0,9.0,61,-99.99,,,0.00,48.000000,,2013-08-03 04:43:00,
2013-08-02 20:53:00,67.0,53.0,-100.00,South,175,6.0,9.0,61,-99.99,,,0.00,48.000000,,2013-08-03 04:53:00,
2013-08-02 21:22:00,60.0,52.0,-100.00,SSW,192,4.0,11.0,74,0.00,,,0.00,16.000000,,2013-08-03 05:22:00,
2013-08-02 21:32:00,60.0,52.0,-100.00,SSW,192,4.0,11.0,74,0.00,,,0.00,16.000000,,2013-08-03 05:32:00,
2013-08-02 21:42:00,60.0,52.0,-100.00,SSW,192,4.0,11.0,74,0.00,,,0.00,16.000000,,2013-08-03 05:42:00,
2013-08-02 21:52:00,60.0,52.0,-100.00,SSW,192,4.0,11.0,74,0.00,,,0.00,16.000000,,2013-08-03 05:52:00,
2013-08-02 22:22:00,57.0,51.0,-100.00,SSW,203,5.0,9.0,81,0.00,,,0.00,2.000000,,2013-08-03 06:22:00,
2013-08-02 22:32:00,57.0,51.0,-100.00,SSW,203,5.0,9.0,81,0.00,,,0.00,2.000000,,2013-08-03 06:32:00,
2013-08-02 22:42:00,57.0,51.0,-100.00,SSW,203,5.0,9.0,81,0.00,,,0.00,2.000000,,2013-08-03 06:42:00,
2013-08-02 22:52:00,57.0,51.0,-100.00,SSW,203,5.0,9.0,81,0.00,,,0.00,2.000000,,2013-08-03 06:52:00,
2013-08-02 23:22:00,55.0,50.0,-100.00,SSW,203,5.0,11.0,84,0.00,,,0.00,0.000000,,2013-08-03 07:22:00,
2013-08-02 23:32:00,55.0,50.0,-100.00,SSW,203,5.0,11.0,84,0.00,,,0.00,0.000000,,2013-08-03 07:32:00,
2013-08-02 23:43:00,55.0,50.0,-100.00,SSW,203,5.0,11.0,84,0.00,,,0.00,0.000000,,2013-08-03 07:43:00,
2013-08-02 23:52:00,55.0,50.0,-100.00,SSW,203,5.0,11.0,84,0.00,,,0.00,0.000000,,2013-08-03 07:52:00,